createdAt,value
2023-12-05T00:00:35.469Z,32.72
2023-12-05T00:03:01.910Z,31.55
2023-12-05T00:05:28.414Z,33.65
2023-12-05T00:07:55.508Z,31.40
2023-12-05T00:10:21.769Z,33.00
2023-12-05T00:12:48.115Z,31.25
2023-12-05T00:15:14.398Z,30.88
2023-12-05T00:17:40.737Z,33.65
2023-12-05T00:20:07.047Z,33.70
2023-12-05T00:22:33.472Z,29.65
2023-12-05T00:24:59.726Z,31.33
2023-12-05T00:27:26.818Z,32.65
2023-12-05T00:29:53.477Z,31.25
2023-12-05T00:32:19.819Z,32.25
2023-12-05T00:34:46.107Z,32.65
2023-12-05T00:37:12.553Z,33.42
2023-12-05T00:39:38.909Z,33.00
2023-12-05T00:42:05.394Z,33.00
2023-12-05T00:44:31.724Z,32.20
2023-12-05T00:46:58.107Z,33.42
2023-12-05T00:49:24.540Z,32.78
2023-12-05T00:51:50.929Z,33.10
2023-12-05T00:54:17.304Z,35.65
2023-12-05T00:56:43.609Z,34.00
2023-12-05T00:59:09.884Z,34.00
2023-12-05T01:01:36.163Z,36.80
2023-12-05T01:04:02.583Z,34.78
2023-12-05T01:06:29.023Z,32.53
2023-12-05T01:08:55.327Z,35.40
2023-12-05T01:11:21.582Z,33.90
2023-12-05T01:13:47.952Z,30.27
2023-12-05T01:16:14.233Z,33.33
2023-12-05T01:18:40.616Z,31.02
2023-12-05T01:21:06.933Z,34.03
2023-12-05T01:23:33.320Z,30.67
2023-12-05T01:25:59.595Z,33.25
2023-12-05T01:28:25.993Z,33.85
2023-12-05T01:30:52.384Z,32.63
2023-12-05T01:33:18.850Z,34.95
2023-12-05T01:35:45.197Z,33.53
2023-12-05T01:38:11.485Z,34.80
2023-12-05T01:40:38.114Z,33.58
2023-12-05T01:43:04.364Z,34.35
2023-12-05T01:45:30.700Z,33.15
2023-12-05T01:47:57.079Z,30.77
2023-12-05T01:50:24.032Z,36.17
2023-12-05T01:52:50.481Z,35.92
2023-12-05T01:55:16.769Z,35.17
2023-12-05T01:57:43.045Z,34.08
2023-12-05T02:00:09.324Z,32.35
2023-12-05T02:02:35.559Z,32.20
2023-12-05T02:05:02.152Z,32.70
2023-12-05T02:07:28.497Z,34.88
2023-12-05T02:09:55.299Z,31.33
2023-12-05T02:12:32.489Z,33.67
2023-12-05T02:14:58.954Z,32.13
2023-12-05T02:17:25.265Z,34.92
2023-12-05T02:19:51.707Z,34.17
2023-12-05T02:22:17.947Z,30.88
2023-12-05T02:24:44.295Z,32.92
2023-12-05T02:27:10.601Z,35.80
2023-12-05T02:29:36.940Z,31.35
2023-12-05T02:32:03.208Z,34.15
2023-12-05T02:34:29.578Z,32.92
2023-12-05T02:36:55.909Z,32.63
2023-12-05T02:39:22.253Z,33.65
2023-12-05T02:41:48.632Z,31.65
2023-12-05T02:44:14.989Z,34.53
2023-12-05T02:46:41.296Z,33.30
2023-12-05T02:49:07.753Z,33.95
2023-12-05T02:51:34.261Z,32.58
2023-12-05T02:54:00.592Z,32.58
2023-12-05T02:56:26.893Z,34.88
2023-12-05T02:58:53.150Z,32.95
2023-12-05T03:01:19.737Z,31.42
2023-12-05T03:03:46.154Z,32.65
2023-12-05T03:06:12.858Z,33.75
2023-12-05T03:08:39.125Z,31.75
2023-12-05T03:11:09.692Z,31.15
2023-12-05T03:13:36.429Z,32.05
2023-12-05T03:16:02.688Z,31.80
2023-12-05T03:18:29.147Z,35.10
2023-12-05T03:20:55.650Z,35.55
2023-12-05T03:23:22.037Z,35.03
2023-12-05T03:25:48.400Z,31.20
2023-12-05T03:28:14.646Z,32.42
2023-12-05T03:30:40.975Z,31.75
2023-12-05T03:33:07.309Z,33.97
2023-12-05T03:35:33.605Z,30.42
2023-12-05T03:37:59.872Z,31.65
2023-12-05T03:40:27.011Z,32.75
2023-12-05T03:42:53.290Z,34.45
2023-12-05T03:45:19.623Z,30.60
2023-12-05T03:47:45.997Z,31.38
2023-12-05T03:50:12.539Z,31.40
2023-12-05T03:52:38.805Z,30.42
2023-12-05T03:55:05.190Z,30.52
2023-12-05T03:57:31.470Z,32.38
2023-12-05T03:59:57.738Z,28.27
2023-12-05T04:02:24.039Z,30.00
2023-12-05T04:04:50.479Z,30.42
2023-12-05T04:07:16.862Z,32.10
2023-12-05T04:09:43.160Z,31.80
2023-12-05T04:12:09.468Z,32.40
2023-12-05T04:14:40.562Z,31.50
2023-12-05T04:17:07.032Z,29.67
2023-12-05T04:19:33.440Z,32.05
2023-12-05T04:21:59.979Z,33.58
2023-12-05T04:24:26.349Z,30.52
2023-12-05T04:26:52.710Z,31.42
2023-12-05T04:29:18.974Z,30.77
2023-12-05T04:31:45.257Z,30.25
2023-12-05T04:34:11.820Z,30.05
2023-12-05T04:36:38.165Z,33.03
2023-12-05T04:39:04.431Z,31.50
2023-12-05T04:41:30.828Z,30.38
2023-12-05T04:43:57.274Z,30.80
2023-12-05T04:46:23.751Z,31.00
2023-12-05T04:48:50.244Z,32.40
2023-12-05T04:51:16.651Z,29.92
2023-12-05T04:53:43.107Z,31.98
2023-12-05T04:56:09.386Z,30.73
2023-12-05T04:58:36.014Z,32.63
2023-12-05T05:01:02.347Z,29.73
2023-12-05T05:03:28.884Z,29.17
2023-12-05T05:05:55.209Z,34.38
2023-12-05T05:08:21.663Z,30.05
2023-12-05T05:10:48.152Z,29.25
2023-12-05T05:13:14.417Z,29.83
2023-12-05T05:15:40.830Z,30.45
2023-12-05T05:18:07.170Z,32.08
2023-12-05T05:20:33.509Z,28.42
2023-12-05T05:22:59.819Z,27.63
2023-12-05T05:25:26.135Z,31.20
2023-12-05T05:27:52.482Z,27.88
2023-12-05T05:30:18.860Z,29.98
2023-12-05T05:32:45.325Z,30.17
2023-12-05T05:35:12.062Z,30.20
2023-12-05T05:37:38.533Z,28.00
2023-12-05T05:40:04.831Z,29.20
2023-12-05T05:42:31.164Z,28.52
2023-12-05T05:44:57.486Z,29.92
2023-12-05T05:47:24.059Z,30.13
2023-12-05T05:49:50.444Z,29.00
2023-12-05T05:52:16.833Z,32.92
2023-12-05T05:54:43.197Z,30.15
2023-12-05T05:57:09.508Z,28.20
2023-12-05T05:59:35.862Z,28.10
2023-12-05T06:02:02.244Z,29.88
2023-12-05T06:04:28.751Z,26.85
2023-12-05T06:06:55.603Z,27.67
2023-12-05T06:09:22.137Z,31.17
2023-12-05T06:11:48.631Z,30.48
2023-12-05T06:14:14.904Z,29.45
2023-12-05T06:16:41.463Z,29.55
2023-12-05T06:19:07.826Z,31.92
2023-12-05T06:21:34.180Z,28.80
2023-12-05T06:24:02.543Z,30.15
2023-12-05T06:26:28.965Z,30.42
2023-12-05T06:28:55.225Z,30.13
2023-12-05T06:31:22.324Z,30.25
2023-12-05T06:33:48.914Z,30.58
2023-12-05T06:36:15.429Z,28.15
2023-12-05T06:38:41.680Z,31.88
2023-12-05T06:41:08.009Z,28.80
2023-12-05T06:43:34.235Z,28.38
2023-12-05T06:46:08.561Z,30.38
2023-12-05T06:48:34.927Z,32.30
2023-12-05T06:51:01.233Z,29.27
2023-12-05T06:53:27.501Z,29.60
2023-12-05T06:55:53.977Z,29.10
2023-12-05T06:58:20.243Z,28.42
2023-12-05T07:00:46.520Z,30.50
2023-12-05T07:03:12.852Z,29.00
2023-12-05T07:05:39.247Z,28.63
2023-12-05T07:08:05.593Z,28.92
2023-12-05T07:10:32.009Z,32.25
2023-12-05T07:12:58.309Z,30.77
2023-12-05T07:15:24.667Z,31.85
2023-12-05T07:17:51.033Z,28.92
2023-12-05T07:20:17.332Z,33.50
2023-12-05T07:22:43.613Z,30.70
2023-12-05T07:25:09.922Z,29.38
2023-12-05T07:27:42.349Z,31.58
2023-12-05T07:30:08.671Z,29.92
2023-12-05T07:32:35.058Z,30.05
2023-12-05T07:35:01.555Z,30.92
2023-12-05T07:37:27.875Z,31.50
2023-12-05T07:39:54.151Z,30.10
2023-12-05T07:42:20.459Z,31.67
2023-12-05T07:44:46.758Z,34.30
2023-12-05T07:47:13.056Z,32.42
2023-12-05T07:49:39.336Z,31.45
2023-12-05T07:52:05.767Z,32.42
2023-12-05T07:54:32.185Z,34.20
2023-12-05T07:56:58.514Z,38.05
2023-12-05T07:59:25.697Z,40.28
2023-12-05T08:01:52.010Z,37.30
2023-12-05T08:04:18.377Z,36.75
2023-12-05T08:06:44.699Z,38.58
2023-12-05T08:09:10.973Z,37.15
2023-12-05T08:11:37.284Z,38.53
2023-12-05T08:14:03.619Z,37.60
2023-12-05T08:16:29.871Z,37.63
2023-12-05T08:18:56.235Z,37.00
2023-12-05T08:21:23.636Z,37.40
2023-12-05T08:23:49.942Z,38.28
2023-12-05T08:26:16.194Z,33.00
2023-12-05T08:28:42.496Z,36.10
2023-12-05T08:31:08.745Z,37.33
2023-12-05T08:33:35.148Z,37.08
2023-12-05T08:36:01.545Z,37.38
2023-12-05T08:38:27.844Z,35.78
2023-12-05T08:40:54.181Z,36.50
2023-12-05T08:43:20.450Z,35.22
2023-12-05T08:45:46.781Z,33.10
2023-12-05T08:48:13.114Z,36.83
2023-12-05T08:50:39.439Z,45.78
2023-12-05T08:53:05.739Z,37.53
2023-12-05T08:55:32.032Z,35.45
2023-12-05T08:57:58.565Z,35.63
2023-12-05T09:00:24.972Z,35.42
2023-12-05T09:02:51.264Z,34.10
2023-12-05T09:05:17.625Z,34.83
2023-12-05T09:07:44.983Z,37.97
2023-12-05T09:10:12.691Z,40.80
2023-12-05T09:12:38.990Z,42.17
2023-12-05T09:15:05.287Z,65.90
2023-12-05T09:17:31.681Z,56.55
2023-12-05T09:19:58.026Z,71.25
2023-12-05T09:22:24.415Z,69.85
2023-12-05T09:24:50.766Z,66.03
2023-12-05T09:27:17.033Z,56.75
2023-12-05T09:29:50.114Z,60.35
2023-12-05T09:32:17.405Z,63.22
2023-12-05T09:34:50.302Z,70.63
2023-12-05T09:37:16.606Z,63.40
2023-12-05T09:39:42.932Z,63.08
2023-12-05T09:42:09.603Z,74.57
2023-12-05T09:44:36.047Z,67.10
2023-12-05T09:47:02.333Z,59.38
2023-12-05T09:49:28.765Z,62.67
2023-12-05T09:51:55.949Z,71.35
2023-12-05T09:54:22.317Z,68.70
2023-12-05T09:56:48.800Z,64.40
2023-12-05T09:59:15.166Z,65.15
2023-12-05T10:01:41.450Z,67.00
2023-12-05T10:04:07.862Z,62.03
2023-12-05T10:06:34.393Z,57.80
2023-12-05T10:09:00.651Z,63.38
2023-12-05T10:11:27.100Z,57.80
2023-12-05T10:13:53.391Z,53.38
2023-12-05T10:16:19.645Z,65.80
2023-12-05T10:18:46.082Z,58.53
2023-12-05T10:21:12.538Z,55.65
2023-12-05T10:23:39.122Z,63.63
2023-12-05T10:26:05.436Z,58.30
2023-12-05T10:28:31.791Z,56.97
2023-12-05T10:31:07.265Z,54.03
2023-12-05T10:33:33.765Z,58.78
2023-12-05T10:36:00.291Z,47.72
2023-12-05T10:38:26.804Z,52.03
2023-12-05T10:40:53.173Z,51.13
2023-12-05T10:43:19.439Z,52.00
2023-12-05T10:45:55.894Z,40.20
2023-12-05T10:48:22.333Z,49.05
2023-12-05T10:50:50.726Z,46.45
2023-12-05T10:53:17.232Z,46.25
2023-12-05T10:55:43.522Z,47.92
2023-12-05T10:58:09.795Z,49.28
2023-12-05T11:00:36.130Z,45.20
2023-12-05T11:03:02.544Z,42.42
2023-12-05T11:05:28.828Z,46.08
2023-12-05T11:07:55.087Z,40.80
2023-12-05T11:10:21.383Z,42.22
2023-12-05T11:12:47.707Z,40.35
2023-12-05T11:15:14.031Z,41.55
2023-12-05T11:17:40.505Z,40.55
2023-12-05T11:20:06.864Z,38.65
2023-12-05T11:22:33.230Z,43.25
2023-12-05T11:24:59.528Z,46.10
2023-12-05T11:27:25.902Z,49.83
2023-12-05T11:29:52.371Z,61.78
2023-12-05T11:32:18.670Z,61.47
2023-12-05T11:34:45.112Z,72.03
2023-12-05T11:37:11.564Z,67.80
2023-12-05T11:39:37.891Z,74.55
2023-12-05T11:42:04.186Z,74.57
2023-12-05T11:44:30.603Z,73.18
2023-12-05T11:46:56.903Z,81.43
2023-12-05T11:49:23.255Z,82.38
2023-12-05T11:51:49.635Z,77.88
2023-12-05T11:54:22.846Z,71.50
2023-12-05T11:56:49.122Z,80.65
2023-12-05T11:59:15.404Z,75.43
2023-12-05T12:01:42.515Z,80.15
2023-12-05T12:04:09.459Z,80.10
2023-12-05T12:06:35.904Z,78.22
2023-12-05T12:09:02.199Z,72.63
2023-12-05T12:11:28.484Z,68.55
2023-12-05T12:13:54.769Z,65.05
2023-12-05T12:16:21.051Z,75.43
2023-12-05T12:18:53.452Z,69.55
2023-12-05T12:21:21.613Z,79.88
2023-12-05T12:23:49.519Z,62.58
2023-12-05T12:26:16.822Z,68.80
2023-12-05T12:28:43.150Z,65.93
2023-12-05T12:31:09.574Z,68.35
2023-12-05T12:33:36.108Z,70.97
2023-12-05T12:36:02.744Z,82.10
2023-12-05T12:38:29.019Z,97.80
2023-12-05T12:40:55.397Z,92.05
2023-12-05T12:43:21.747Z,94.25
2023-12-05T12:45:48.104Z,88.63
2023-12-05T12:48:24.547Z,102.68
2023-12-05T12:50:50.919Z,99.65
2023-12-05T12:53:17.185Z,106.63
2023-12-05T12:55:43.468Z,104.75
2023-12-05T12:58:09.767Z,104.80
2023-12-05T13:00:37.835Z,111.18
2023-12-05T13:03:04.599Z,97.82
2023-12-05T13:05:31.003Z,98.35
2023-12-05T13:07:57.315Z,102.32
2023-12-05T13:10:23.583Z,109.95
2023-12-05T13:12:49.892Z,99.85
2023-12-05T13:15:16.176Z,107.35
2023-12-05T13:17:42.506Z,105.25
2023-12-05T13:20:08.806Z,110.85
2023-12-05T13:22:35.123Z,110.90
2023-12-05T13:25:01.559Z,115.68
2023-12-05T13:27:27.916Z,108.25
2023-12-05T13:29:54.299Z,104.22
2023-12-05T13:32:20.557Z,117.63
2023-12-05T13:34:46.870Z,103.95
2023-12-05T13:37:13.172Z,105.72
2023-12-05T13:39:39.470Z,110.15
2023-12-05T13:42:05.763Z,103.80
2023-12-05T13:44:32.045Z,103.80
2023-12-05T13:46:58.409Z,101.38
2023-12-05T13:49:24.820Z,104.38
2023-12-05T13:51:51.209Z,107.75
2023-12-05T13:54:18.738Z,109.13
2023-12-05T13:56:55.003Z,105.32
2023-12-05T13:59:21.281Z,106.40
2023-12-05T14:01:47.686Z,110.40
2023-12-05T14:04:14.470Z,118.28
2023-12-05T14:06:40.940Z,108.40
2023-12-05T14:09:07.277Z,114.60
2023-12-05T14:11:43.541Z,116.18
2023-12-05T14:14:15.832Z,115.50
2023-12-05T14:16:42.149Z,111.70
2023-12-05T14:19:08.857Z,110.05
2023-12-05T14:21:35.290Z,110.32
2023-12-05T14:24:01.572Z,115.43
2023-12-05T14:26:27.906Z,113.63
2023-12-05T14:28:54.149Z,109.72
2023-12-05T14:31:20.448Z,100.55
2023-12-05T14:33:46.858Z,105.40
2023-12-05T14:36:13.199Z,94.85
2023-12-05T14:38:39.535Z,92.93
2023-12-05T14:41:05.836Z,94.93
2023-12-05T14:43:32.083Z,90.63
2023-12-05T14:45:58.505Z,92.55
2023-12-05T14:48:24.912Z,97.90
2023-12-05T14:50:51.250Z,93.22
2023-12-05T14:53:17.635Z,109.35
2023-12-05T14:55:43.936Z,97.88
2023-12-05T14:58:10.295Z,96.22
2023-12-05T15:00:36.588Z,97.20
2023-12-05T15:03:02.990Z,96.75
2023-12-05T15:05:29.369Z,95.95
2023-12-05T15:07:55.762Z,95.43
2023-12-05T15:10:22.053Z,97.90
2023-12-05T15:12:48.449Z,88.85
2023-12-05T15:15:14.706Z,91.20
2023-12-05T15:17:41.280Z,86.97
2023-12-05T15:20:19.810Z,92.45
2023-12-05T15:22:49.784Z,85.53
2023-12-05T15:25:16.031Z,83.15
2023-12-05T15:27:42.330Z,85.88
2023-12-05T15:30:08.601Z,80.47
2023-12-05T15:32:34.930Z,77.57
2023-12-05T15:35:01.274Z,82.82
2023-12-05T15:37:27.536Z,72.97
2023-12-05T15:39:53.868Z,73.55
2023-12-05T15:42:20.181Z,77.78
2023-12-05T15:44:46.545Z,82.15
2023-12-05T15:47:15.325Z,75.40
2023-12-05T15:49:41.957Z,69.82
2023-12-05T15:52:08.299Z,67.47
2023-12-05T15:54:34.665Z,72.80
2023-12-05T15:57:00.988Z,70.80
2023-12-05T15:59:27.311Z,63.17
2023-12-05T16:01:53.717Z,67.03
2023-12-05T16:04:20.041Z,70.57
2023-12-05T16:06:46.346Z,68.22
2023-12-05T16:09:12.641Z,62.03
2023-12-05T16:11:40.512Z,59.65
2023-12-05T16:14:06.924Z,61.97
2023-12-05T16:16:33.260Z,59.50
2023-12-05T16:18:59.570Z,55.00
2023-12-05T16:21:25.941Z,57.42
2023-12-05T16:23:52.225Z,55.70
2023-12-05T16:26:18.526Z,54.38
2023-12-05T16:28:44.845Z,52.42
2023-12-05T16:31:15.675Z,54.53
2023-12-05T16:33:42.092Z,52.53
2023-12-05T16:36:08.414Z,53.30
2023-12-05T16:38:34.906Z,50.50
2023-12-05T16:41:01.181Z,52.78
2023-12-05T16:43:27.461Z,52.33
2023-12-05T16:45:53.738Z,50.40
2023-12-05T16:48:22.720Z,48.45
2023-12-05T16:50:49.034Z,49.63
2023-12-05T16:53:15.461Z,47.22
2023-12-05T16:55:41.694Z,42.88
2023-12-05T16:58:08.029Z,45.30
2023-12-05T17:00:34.441Z,46.63
2023-12-05T17:03:00.837Z,47.63
2023-12-05T17:05:27.474Z,43.75
2023-12-05T17:08:03.794Z,44.92
2023-12-05T17:10:30.086Z,44.25
2023-12-05T17:12:56.782Z,44.05
2023-12-05T17:15:23.098Z,41.95
2023-12-05T17:17:49.535Z,43.05
2023-12-05T17:20:15.818Z,43.13
2023-12-05T17:22:42.065Z,44.72
2023-12-05T17:25:08.436Z,42.40
2023-12-05T17:27:34.788Z,40.47
2023-12-05T17:30:21.240Z,40.88
2023-12-05T17:32:47.533Z,40.40
2023-12-05T17:35:13.906Z,38.45
2023-12-05T17:37:42.200Z,39.72
2023-12-05T17:40:09.120Z,40.08
2023-12-05T17:42:35.531Z,37.70
2023-12-05T17:45:02.046Z,41.38
2023-12-05T17:47:28.588Z,38.65
2023-12-05T17:49:54.935Z,38.45
2023-12-05T17:52:21.183Z,37.35
2023-12-05T17:54:47.477Z,34.58
2023-12-05T17:57:13.784Z,37.97
2023-12-05T17:59:40.059Z,35.40
2023-12-05T18:02:06.433Z,36.88
2023-12-05T18:04:32.887Z,38.60
2023-12-05T18:07:50.075Z,34.90
2023-12-05T18:09:45.920Z,34.42
2023-12-05T18:12:21.801Z,33.58
2023-12-05T18:14:48.618Z,36.83
2023-12-05T18:17:14.911Z,34.47
2023-12-05T18:19:41.545Z,35.55
2023-12-05T18:22:08.442Z,34.80
2023-12-05T18:24:34.749Z,37.42
2023-12-05T18:27:05.073Z,34.90
2023-12-05T18:29:31.510Z,34.80
2023-12-05T18:31:57.755Z,35.17
2023-12-05T18:34:24.143Z,32.63
2023-12-05T18:36:50.575Z,33.63
2023-12-05T18:39:23.940Z,36.55
2023-12-05T18:41:50.320Z,31.48
2023-12-05T18:44:19.591Z,46.85
2023-12-05T18:46:46.239Z,135.02
2023-12-05T18:49:12.551Z,163.32
2023-12-05T18:51:38.893Z,162.32
2023-12-05T18:54:07.187Z,154.18
2023-12-05T18:56:33.485Z,150.32
2023-12-05T18:58:59.739Z,143.70
2023-12-05T19:01:26.103Z,144.20
2023-12-05T19:03:52.788Z,126.30
2023-12-05T19:06:19.179Z,132.00
2023-12-05T19:08:45.487Z,130.20
2023-12-05T19:11:12.067Z,120.20
2023-12-05T19:13:38.418Z,121.55
2023-12-05T19:16:04.753Z,114.38
2023-12-05T19:18:31.211Z,113.45
2023-12-05T19:20:57.673Z,112.25
2023-12-05T19:23:23.976Z,108.93
2023-12-05T19:25:50.353Z,112.35
2023-12-05T19:28:26.587Z,107.22
2023-12-05T19:30:52.983Z,101.32
2023-12-05T19:33:19.382Z,103.93
2023-12-05T19:35:45.987Z,95.90
2023-12-05T19:38:12.274Z,94.40
2023-12-05T19:40:38.718Z,90.75
2023-12-05T19:43:04.999Z,88.07
2023-12-05T19:45:31.322Z,89.68
2023-12-05T19:47:57.821Z,84.85
2023-12-05T19:50:24.144Z,87.90
2023-12-05T19:52:50.545Z,84.18
2023-12-05T19:55:16.841Z,84.88
2023-12-05T19:57:43.195Z,84.95
2023-12-05T20:00:09.449Z,82.65
2023-12-05T20:02:35.777Z,72.60
2023-12-05T20:05:02.161Z,76.88
2023-12-05T20:07:28.516Z,76.35
2023-12-05T20:09:54.815Z,76.35
2023-12-05T20:12:21.142Z,72.82
2023-12-05T20:14:47.407Z,117.32
2023-12-05T20:17:13.653Z,118.65
2023-12-05T20:19:40.060Z,115.38
2023-12-05T20:22:06.608Z,112.13
2023-12-05T20:24:32.975Z,117.13
2023-12-05T20:26:59.331Z,106.55
2023-12-05T20:29:25.782Z,111.00
2023-12-05T20:31:52.303Z,103.40
2023-12-05T20:34:18.956Z,129.75
2023-12-05T20:36:45.370Z,198.77
2023-12-05T20:39:11.751Z,240.50
2023-12-05T20:41:38.313Z,281.52
2023-12-05T20:44:04.646Z,288.50
2023-12-05T20:46:30.974Z,281.42
2023-12-05T20:48:57.320Z,274.52
2023-12-05T20:51:23.656Z,271.60
2023-12-05T20:53:49.888Z,250.07
2023-12-05T20:56:16.179Z,254.20
2023-12-05T20:58:42.711Z,244.25
2023-12-05T21:01:09.190Z,279.05
2023-12-05T21:03:35.620Z,330.20
2023-12-05T21:06:01.927Z,356.33
2023-12-05T21:09:08.782Z,371.35
2023-12-05T21:11:15.287Z,367.85
2023-12-05T21:13:41.516Z,378.95
2023-12-05T21:16:07.832Z,383.17
2023-12-05T21:18:34.309Z,404.75
2023-12-05T21:21:00.934Z,422.77
2023-12-05T21:23:27.860Z,421.98
2023-12-05T21:25:54.316Z,416.13
2023-12-05T21:28:20.621Z,418.83
2023-12-05T21:30:47.012Z,415.23
2023-12-05T21:33:13.936Z,399.35
2023-12-05T21:35:40.972Z,398.00
2023-12-05T21:38:07.350Z,387.38
2023-12-05T21:40:33.585Z,377.33
2023-12-05T21:42:59.907Z,378.67
2023-12-05T21:45:26.238Z,373.27
2023-12-05T21:47:53.044Z,358.83
2023-12-05T21:50:19.375Z,359.17
2023-12-05T21:52:45.939Z,352.90
2023-12-05T21:55:12.287Z,340.50
2023-12-05T21:57:38.570Z,340.55
2023-12-05T22:00:04.856Z,395.63
2023-12-05T22:02:31.123Z,427.60
2023-12-05T22:04:57.463Z,434.48
2023-12-05T22:07:24.034Z,428.77
2023-12-05T22:09:51.226Z,430.42
2023-12-05T22:12:17.703Z,430.55
2023-12-05T22:14:43.982Z,421.70
2023-12-05T22:17:10.271Z,416.48
2023-12-05T22:19:36.608Z,418.08
2023-12-05T22:22:02.977Z,410.27
2023-12-05T22:24:32.762Z,401.13
2023-12-05T22:26:59.649Z,452.73
2023-12-05T22:29:33.950Z,479.30
2023-12-05T22:32:00.318Z,476.95
2023-12-05T22:34:26.769Z,478.52
2023-12-05T22:36:53.092Z,445.45
2023-12-05T22:39:19.741Z,425.20
2023-12-05T22:41:46.153Z,409.88
2023-12-05T22:44:12.523Z,404.88
2023-12-05T22:46:39.048Z,446.00
2023-12-05T22:49:05.592Z,509.15
2023-12-05T22:51:32.180Z,503.58
2023-12-05T22:53:58.566Z,488.48
2023-12-05T22:56:24.839Z,482.67
2023-12-05T22:58:51.284Z,478.00
2023-12-05T23:01:17.718Z,527.20
2023-12-05T23:03:44.251Z,603.42
2023-12-05T23:06:10.716Z,568.70
2023-12-05T23:08:37.096Z,557.78
2023-12-05T23:11:03.663Z,562.33
2023-12-05T23:13:29.941Z,575.22
2023-12-05T23:15:56.988Z,595.85
2023-12-05T23:18:23.273Z,594.78
2023-12-05T23:20:49.548Z,582.78
2023-12-05T23:23:15.807Z,566.30
2023-12-05T23:25:42.077Z,563.08
2023-12-05T23:28:15.406Z,565.85
2023-12-05T23:30:45.302Z,551.35
2023-12-05T23:33:11.580Z,545.22
2023-12-05T23:35:37.858Z,536.47
2023-12-05T23:38:04.368Z,527.40
2023-12-05T23:40:30.702Z,527.60
2023-12-05T23:42:57.127Z,510.80
2023-12-05T23:45:23.431Z,508.35
2023-12-05T23:47:50.911Z,496.27
2023-12-05T23:50:17.240Z,497.42
2023-12-05T23:52:43.586Z,491.75
2023-12-05T23:55:09.922Z,487.42
2023-12-05T23:57:36.365Z,484.60
